createdAt,value
2017-09-15T00:00:02.957Z,0
2017-09-15T00:00:43.548Z,0
2017-09-15T00:01:24.124Z,0
2017-09-15T00:02:04.674Z,0
2017-09-15T00:02:45.246Z,0
2017-09-15T00:03:25.812Z,0
2017-09-15T00:04:06.374Z,0
2017-09-15T00:04:46.936Z,0
2017-09-15T00:05:27.504Z,0
2017-09-15T00:06:08.094Z,0
2017-09-15T00:06:48.659Z,0
2017-09-15T00:07:29.220Z,0
2017-09-15T00:08:09.784Z,0
2017-09-15T00:08:50.337Z,0
2017-09-15T00:09:30.909Z,0
2017-09-15T00:10:11.486Z,0
2017-09-15T00:10:52.067Z,0
2017-09-15T00:11:32.624Z,0
2017-09-15T00:12:13.251Z,0
2017-09-15T00:12:53.832Z,0
2017-09-15T00:13:34.390Z,0
2017-09-15T00:14:14.986Z,0
2017-09-15T00:14:55.570Z,0
2017-09-15T00:15:36.151Z,0
2017-09-15T00:16:16.715Z,0
2017-09-15T00:16:57.284Z,0
2017-09-15T00:17:37.847Z,0
2017-09-15T00:18:18.410Z,0
2017-09-15T00:18:59.015Z,0
2017-09-15T00:19:39.574Z,0
2017-09-15T00:20:20.139Z,0
2017-09-15T00:21:00.716Z,0
2017-09-15T00:21:41.268Z,0
2017-09-15T00:22:21.867Z,0
2017-09-15T00:23:02.477Z,0
2017-09-15T00:23:43.052Z,0
2017-09-15T00:24:23.615Z,0
2017-09-15T00:25:04.186Z,0
2017-09-15T00:25:44.750Z,0
2017-09-15T00:26:25.309Z,0
2017-09-15T00:27:05.878Z,0
2017-09-15T00:27:46.448Z,0
2017-09-15T00:28:27.010Z,0
2017-09-15T00:29:07.572Z,0
2017-09-15T00:29:48.239Z,0
2017-09-15T00:30:28.853Z,0
2017-09-15T00:31:09.405Z,0
2017-09-15T00:31:49.977Z,0
2017-09-15T00:32:30.545Z,0
2017-09-15T00:33:11.106Z,0
2017-09-15T00:33:51.667Z,0
2017-09-15T00:34:32.236Z,0
2017-09-15T00:35:12.793Z,0
2017-09-15T00:35:53.380Z,0
2017-09-15T00:36:33.979Z,0
2017-09-15T00:37:14.546Z,0
2017-09-15T00:37:55.108Z,0
2017-09-15T00:38:35.666Z,0
2017-09-15T00:39:16.236Z,0
2017-09-15T00:39:56.814Z,0
2017-09-15T00:40:37.376Z,0
2017-09-15T00:41:17.933Z,0
2017-09-15T00:41:58.512Z,0
2017-09-15T00:42:39.082Z,0
2017-09-15T00:43:19.656Z,0
2017-09-15T00:44:00.209Z,0
2017-09-15T00:44:40.776Z,0
2017-09-15T00:45:21.339Z,0
2017-09-15T00:46:01.924Z,0
2017-09-15T00:46:42.489Z,0
2017-09-15T00:47:23.073Z,0
2017-09-15T00:48:03.648Z,0
2017-09-15T00:48:44.228Z,0
2017-09-15T00:49:24.797Z,0
2017-09-15T00:50:05.359Z,0
2017-09-15T00:50:45.917Z,0
2017-09-15T00:51:26.471Z,0
2017-09-15T00:52:07.039Z,0
2017-09-15T00:52:47.610Z,0
2017-09-15T00:53:28.187Z,0
2017-09-15T00:54:08.751Z,0
2017-09-15T00:54:49.322Z,0
2017-09-15T00:55:29.888Z,0
2017-09-15T00:56:10.444Z,0
2017-09-15T00:56:51.008Z,0
2017-09-15T00:57:31.580Z,0
2017-09-15T00:58:12.160Z,0
2017-09-15T00:58:52.715Z,0
2017-09-15T00:59:33.287Z,0
2017-09-15T01:00:13.853Z,0
2017-09-15T01:00:54.404Z,0
2017-09-15T01:01:34.973Z,0
2017-09-15T01:02:15.575Z,0
2017-09-15T01:02:56.155Z,0
2017-09-15T01:03:36.730Z,0
2017-09-15T01:04:17.292Z,0
2017-09-15T01:04:57.866Z,0
2017-09-15T01:05:38.414Z,0
2017-09-15T01:06:18.982Z,0
2017-09-15T01:06:59.548Z,0
2017-09-15T01:07:40.117Z,0
2017-09-15T01:08:20.716Z,0
2017-09-15T01:09:01.274Z,0
2017-09-15T01:09:41.866Z,0
2017-09-15T01:10:22.467Z,0
2017-09-15T01:11:03.064Z,0
2017-09-15T01:11:43.601Z,0
2017-09-15T01:12:24.179Z,0
2017-09-15T01:13:04.749Z,0
2017-09-15T01:13:45.326Z,0
2017-09-15T01:14:25.882Z,0
2017-09-15T01:15:06.444Z,0
2017-09-15T01:15:47.009Z,0
2017-09-15T01:16:27.593Z,0
2017-09-15T01:17:08.156Z,0
2017-09-15T01:17:48.714Z,0
2017-09-15T01:18:29.266Z,0
2017-09-15T01:19:09.824Z,0
2017-09-15T01:19:50.390Z,0
2017-09-15T01:20:30.946Z,0
2017-09-15T01:21:11.506Z,0
2017-09-15T01:21:52.078Z,0
2017-09-15T01:22:32.636Z,0
2017-09-15T01:23:13.195Z,0
2017-09-15T01:23:55.646Z,0
2017-09-15T01:24:39.062Z,0
2017-09-15T01:25:19.453Z,0
2017-09-15T01:26:00.027Z,0
2017-09-15T01:26:40.595Z,0
2017-09-15T01:27:21.143Z,0
2017-09-15T01:28:01.697Z,0
2017-09-15T01:28:42.260Z,0
2017-09-15T01:29:22.825Z,0
2017-09-15T01:30:03.387Z,0
2017-09-15T01:30:44.556Z,0
2017-09-15T01:31:25.121Z,0
2017-09-15T01:32:05.692Z,0
2017-09-15T01:32:48.108Z,0
2017-09-15T01:33:28.321Z,0
2017-09-15T01:34:12.670Z,0
2017-09-15T01:34:54.704Z,0
2017-09-15T01:35:37.631Z,0
2017-09-15T01:36:21.584Z,0
2017-09-15T01:37:03.091Z,0
2017-09-15T01:37:43.641Z,0
2017-09-15T01:38:25.574Z,0
2017-09-15T01:39:06.433Z,0
2017-09-15T01:39:48.127Z,0
2017-09-15T01:40:32.529Z,0
2017-09-15T01:41:13.104Z,0
2017-09-15T01:41:55.135Z,0
2017-09-15T01:42:37.209Z,0
2017-09-15T01:43:20.132Z,0
2017-09-15T01:44:03.145Z,0
2017-09-15T01:44:43.472Z,0
2017-09-15T01:45:24.067Z,0
2017-09-15T01:46:06.108Z,0
2017-09-15T01:46:48.669Z,0
2017-09-15T01:47:31.673Z,0
2017-09-15T01:48:11.515Z,0
2017-09-15T01:48:53.640Z,0
2017-09-15T01:49:33.975Z,0
2017-09-15T01:50:14.540Z,0
2017-09-15T01:50:55.115Z,0
2017-09-15T01:51:38.626Z,0
2017-09-15T01:52:18.996Z,0
2017-09-15T01:53:01.036Z,0
2017-09-15T01:53:44.483Z,0
2017-09-15T01:54:25.038Z,0
2017-09-15T01:55:05.998Z,0
2017-09-15T01:55:46.567Z,0
2017-09-15T01:56:29.125Z,0
2017-09-15T01:57:13.571Z,0
2017-09-15T01:57:53.679Z,0
2017-09-15T01:58:34.247Z,0
2017-09-15T01:59:17.532Z,0
2017-09-15T01:59:58.100Z,0
2017-09-15T02:00:38.669Z,0
2017-09-15T02:01:19.233Z,0
2017-09-15T02:01:59.813Z,0
2017-09-15T02:02:40.413Z,0
2017-09-15T02:03:20.995Z,0
2017-09-15T02:04:01.556Z,0
2017-09-15T02:04:42.126Z,0
2017-09-15T02:05:23.849Z,0
2017-09-15T02:06:04.403Z,0
2017-09-15T02:06:44.955Z,0
2017-09-15T02:07:25.540Z,0
2017-09-15T02:08:06.118Z,0
2017-09-15T02:08:46.837Z,0
2017-09-15T02:09:27.408Z,0
2017-09-15T02:10:08.033Z,0
2017-09-15T02:10:48.586Z,0
2017-09-15T02:11:29.159Z,0
2017-09-15T02:12:09.715Z,0
2017-09-15T02:12:50.293Z,0
2017-09-15T02:13:30.857Z,0
2017-09-15T02:14:11.544Z,0
2017-09-15T02:14:52.120Z,0
2017-09-15T02:15:32.705Z,0
2017-09-15T02:16:13.482Z,0
2017-09-15T02:16:54.045Z,0
2017-09-15T02:17:34.612Z,0
2017-09-15T02:18:15.189Z,0
2017-09-15T02:18:55.750Z,0
2017-09-15T02:19:36.317Z,0
2017-09-15T02:20:16.886Z,0
2017-09-15T02:20:57.445Z,0
2017-09-15T02:21:38.035Z,0
2017-09-15T02:22:18.590Z,0
2017-09-15T02:22:59.168Z,0
2017-09-15T02:23:39.732Z,0
2017-09-15T02:24:20.306Z,0
2017-09-15T02:25:00.860Z,0
2017-09-15T02:25:41.425Z,0
2017-09-15T02:26:22.067Z,0
2017-09-15T02:27:02.630Z,0
2017-09-15T02:27:43.190Z,0
2017-09-15T02:28:23.774Z,0
2017-09-15T02:29:04.358Z,0
2017-09-15T02:29:44.916Z,0
2017-09-15T02:30:26.326Z,0
2017-09-15T02:31:06.914Z,0
2017-09-15T02:31:47.470Z,0
2017-09-15T02:32:28.031Z,0
2017-09-15T02:33:08.696Z,0
2017-09-15T02:33:49.261Z,0
2017-09-15T02:34:29.823Z,0
2017-09-15T02:35:10.390Z,0
2017-09-15T02:35:50.992Z,0
2017-09-15T02:36:31.544Z,0
2017-09-15T02:37:12.108Z,0
2017-09-15T02:37:52.653Z,0
2017-09-15T02:38:33.330Z,0
2017-09-15T02:39:13.894Z,0
2017-09-15T02:39:54.473Z,0
2017-09-15T02:40:35.065Z,0
2017-09-15T02:41:15.597Z,0
2017-09-15T02:41:56.307Z,0
2017-09-15T02:42:36.892Z,0
2017-09-15T02:43:17.452Z,0
2017-09-15T02:43:58.020Z,0
2017-09-15T02:44:38.693Z,0
2017-09-15T02:45:19.253Z,0
2017-09-15T02:45:59.848Z,0
2017-09-15T02:46:40.435Z,0
2017-09-15T02:47:21.012Z,0
2017-09-15T02:48:01.572Z,0
2017-09-15T02:48:42.138Z,0
2017-09-15T02:49:22.978Z,0
2017-09-15T02:50:03.541Z,0
2017-09-15T02:50:44.108Z,0
2017-09-15T02:51:24.809Z,0
2017-09-15T02:52:05.362Z,0
2017-09-15T02:52:45.922Z,0
2017-09-15T02:53:26.490Z,0
2017-09-15T02:54:07.044Z,0
2017-09-15T02:54:47.619Z,0
2017-09-15T02:55:28.187Z,0
2017-09-15T02:56:08.744Z,0
2017-09-15T02:56:49.332Z,0
2017-09-15T02:57:29.892Z,0
2017-09-15T02:58:10.447Z,0
2017-09-15T02:58:51.011Z,0
2017-09-15T02:59:31.578Z,0
2017-09-15T03:00:12.217Z,0
2017-09-15T03:00:52.762Z,0
2017-09-15T03:01:33.326Z,0
2017-09-15T03:02:13.891Z,0
2017-09-15T03:02:54.459Z,0
2017-09-15T03:03:35.031Z,0
2017-09-15T03:04:15.687Z,0
2017-09-15T03:04:56.244Z,0
2017-09-15T03:05:36.817Z,0
2017-09-15T03:06:17.475Z,0
2017-09-15T03:06:58.032Z,0
2017-09-15T03:07:38.595Z,0
2017-09-15T03:08:19.151Z,0
2017-09-15T03:08:59.881Z,0
2017-09-15T03:09:40.443Z,0
2017-09-15T03:10:21.004Z,0
2017-09-15T03:11:01.569Z,0
2017-09-15T03:11:42.129Z,0
2017-09-15T03:12:23.104Z,0
2017-09-15T03:13:03.688Z,0
2017-09-15T03:13:44.238Z,0
2017-09-15T03:14:24.803Z,0
2017-09-15T03:15:05.393Z,0
2017-09-15T03:15:45.949Z,0
2017-09-15T03:16:26.501Z,0
2017-09-15T03:17:07.082Z,0
2017-09-15T03:17:47.663Z,0
2017-09-15T03:18:28.235Z,0
2017-09-15T03:19:08.794Z,0
2017-09-15T03:19:49.355Z,0
2017-09-15T03:20:29.924Z,0
2017-09-15T03:21:10.488Z,0
2017-09-15T03:21:51.108Z,0
2017-09-15T03:22:32.190Z,0
2017-09-15T03:23:12.886Z,0
2017-09-15T03:23:53.473Z,0
2017-09-15T03:24:34.042Z,0
2017-09-15T03:25:14.614Z,0
2017-09-15T03:25:55.174Z,0
2017-09-15T03:26:36.314Z,0
2017-09-15T03:27:16.877Z,0
2017-09-15T03:27:57.507Z,0
2017-09-15T03:28:38.069Z,0
2017-09-15T03:29:18.640Z,0
2017-09-15T03:29:59.203Z,0
2017-09-15T03:30:39.769Z,0
2017-09-15T03:31:21.675Z,0
2017-09-15T03:32:02.126Z,0
2017-09-15T03:32:42.685Z,0
2017-09-15T03:33:23.826Z,0
2017-09-15T03:34:04.386Z,0
2017-09-15T03:34:44.974Z,0
2017-09-15T03:35:25.971Z,0
2017-09-15T03:36:06.383Z,0
2017-09-15T03:36:46.956Z,0
2017-09-15T03:37:27.546Z,0
2017-09-15T03:38:08.102Z,0
2017-09-15T03:38:48.668Z,0
2017-09-15T03:39:29.231Z,0
2017-09-15T03:40:09.809Z,0
2017-09-15T03:40:50.375Z,0
2017-09-15T03:41:31.346Z,0
2017-09-15T03:42:11.721Z,0
2017-09-15T03:42:52.302Z,0
2017-09-15T03:43:32.866Z,0
2017-09-15T03:44:13.444Z,0
2017-09-15T03:44:54.008Z,0
2017-09-15T03:45:34.594Z,0
2017-09-15T03:46:15.157Z,0
2017-09-15T03:46:55.705Z,0
2017-09-15T03:47:36.254Z,0
2017-09-15T03:48:16.835Z,0
2017-09-15T03:48:57.391Z,0
2017-09-15T03:49:37.961Z,0
2017-09-15T03:50:18.539Z,0
2017-09-15T03:50:59.103Z,0
2017-09-15T03:51:39.691Z,0
2017-09-15T03:52:20.408Z,0
2017-09-15T03:53:00.966Z,0
2017-09-15T03:53:41.577Z,0
2017-09-15T03:54:22.141Z,0
2017-09-15T03:55:02.691Z,0
2017-09-15T03:55:43.257Z,0
2017-09-15T03:56:23.820Z,0
2017-09-15T03:57:04.385Z,0
2017-09-15T03:57:44.981Z,0
2017-09-15T03:58:25.536Z,0
2017-09-15T03:59:06.148Z,0
2017-09-15T03:59:46.724Z,0
2017-09-15T04:00:27.467Z,0
2017-09-15T04:01:08.033Z,0
2017-09-15T04:01:48.603Z,0
2017-09-15T04:02:29.163Z,0
2017-09-15T04:03:09.826Z,0
2017-09-15T04:03:50.405Z,0
2017-09-15T04:04:30.993Z,0
2017-09-15T04:05:11.544Z,0
2017-09-15T04:05:52.107Z,0
2017-09-15T04:06:32.691Z,0
2017-09-15T04:07:13.276Z,0
2017-09-15T04:07:53.853Z,0
2017-09-15T04:08:34.417Z,0
2017-09-15T04:09:15.387Z,0
2017-09-15T04:09:55.968Z,0
2017-09-15T04:10:36.536Z,0
2017-09-15T04:11:17.109Z,0
2017-09-15T04:11:57.661Z,0
2017-09-15T04:12:38.235Z,0
2017-09-15T04:13:18.808Z,0
2017-09-15T04:13:59.365Z,0
2017-09-15T04:14:39.960Z,0
2017-09-15T04:15:20.498Z,4
2017-09-15T04:16:01.084Z,0
2017-09-15T04:16:41.661Z,4
2017-09-15T04:17:22.223Z,0
2017-09-15T04:18:02.786Z,4
2017-09-15T04:18:43.360Z,0
2017-09-15T04:19:23.913Z,4
2017-09-15T04:20:04.493Z,4
2017-09-15T04:20:45.064Z,4
2017-09-15T04:21:25.643Z,4
2017-09-15T04:22:06.259Z,4
2017-09-15T04:22:46.828Z,4
2017-09-15T04:23:27.422Z,4
2017-09-15T04:24:07.979Z,4
2017-09-15T04:24:48.539Z,4
2017-09-15T04:25:29.120Z,8
2017-09-15T04:26:09.756Z,4
2017-09-15T04:26:50.331Z,8
2017-09-15T04:27:30.906Z,12
2017-09-15T04:28:11.474Z,8
2017-09-15T04:28:52.038Z,8
2017-09-15T04:29:32.614Z,12
2017-09-15T04:30:13.197Z,16
2017-09-15T04:30:53.786Z,12
2017-09-15T04:31:34.546Z,12
2017-09-15T04:32:15.109Z,16
2017-09-15T04:32:55.676Z,20
2017-09-15T04:33:36.319Z,20
2017-09-15T04:34:16.895Z,32
2017-09-15T04:34:57.468Z,44
2017-09-15T04:35:38.054Z,64
2017-09-15T04:36:18.751Z,76
2017-09-15T04:36:59.333Z,84
2017-09-15T04:37:39.890Z,68
2017-09-15T04:38:20.462Z,64
2017-09-15T04:39:01.014Z,76
2017-09-15T04:39:41.589Z,92
2017-09-15T04:40:22.131Z,92
2017-09-15T04:41:02.710Z,92
2017-09-15T04:41:43.271Z,96
2017-09-15T04:42:23.842Z,96
2017-09-15T04:43:04.418Z,120
2017-09-15T04:43:44.979Z,156
2017-09-15T04:44:25.555Z,168
2017-09-15T04:45:06.209Z,184
2017-09-15T04:45:46.769Z,196
2017-09-15T04:46:27.325Z,188
2017-09-15T04:47:07.897Z,192
2017-09-15T04:47:48.488Z,200
2017-09-15T04:48:29.136Z,204
2017-09-15T04:49:09.717Z,236
2017-09-15T04:49:50.310Z,228
2017-09-15T04:50:30.889Z,204
2017-09-15T04:51:11.701Z,192
2017-09-15T04:51:52.268Z,232
2017-09-15T04:52:32.835Z,284
2017-09-15T04:53:13.415Z,316
2017-09-15T04:53:53.982Z,316
2017-09-15T04:54:34.556Z,372
2017-09-15T04:55:15.124Z,400
2017-09-15T04:55:55.698Z,424
2017-09-15T04:56:36.252Z,456
2017-09-15T04:57:16.843Z,496
2017-09-15T04:57:57.428Z,564
2017-09-15T04:58:37.992Z,628
2017-09-15T04:59:18.557Z,676
2017-09-15T04:59:59.129Z,740
2017-09-15T05:00:39.714Z,780
2017-09-15T05:01:20.301Z,748
2017-09-15T05:02:00.856Z,656
2017-09-15T05:02:41.420Z,528
2017-09-15T05:03:21.991Z,420
2017-09-15T05:04:02.553Z,364
2017-09-15T05:04:43.127Z,328
2017-09-15T05:05:23.708Z,324
2017-09-15T05:06:04.326Z,320
2017-09-15T05:06:44.897Z,312
2017-09-15T05:07:25.461Z,320
2017-09-15T05:08:06.013Z,312
2017-09-15T05:08:46.574Z,304
2017-09-15T05:09:27.135Z,296
2017-09-15T05:10:07.707Z,324
2017-09-15T05:10:48.266Z,332
2017-09-15T05:11:28.832Z,328
2017-09-15T05:12:09.398Z,352
2017-09-15T05:12:49.960Z,392
2017-09-15T05:13:30.526Z,484
2017-09-15T05:14:11.085Z,448
2017-09-15T05:14:51.658Z,456
2017-09-15T05:15:32.265Z,432
2017-09-15T05:16:12.832Z,352
2017-09-15T05:16:53.382Z,356
2017-09-15T05:17:33.946Z,440
2017-09-15T05:18:14.521Z,472
2017-09-15T05:18:55.087Z,500
2017-09-15T05:19:35.654Z,476
2017-09-15T05:20:16.229Z,604
2017-09-15T05:20:56.796Z,644
2017-09-15T05:21:37.357Z,776
2017-09-15T05:22:17.910Z,768
2017-09-15T05:22:58.486Z,760
2017-09-15T05:23:39.067Z,728
2017-09-15T05:24:19.644Z,668
2017-09-15T05:25:00.211Z,632
2017-09-15T05:25:40.783Z,720
2017-09-15T05:26:21.344Z,824
2017-09-15T05:27:01.927Z,924
2017-09-15T05:27:42.481Z,1048
2017-09-15T05:28:23.038Z,944
2017-09-15T05:29:03.629Z,884
2017-09-15T05:29:44.171Z,864
2017-09-15T05:30:24.726Z,704
2017-09-15T05:31:05.296Z,936
2017-09-15T05:31:45.852Z,1036
2017-09-15T05:32:26.414Z,888
2017-09-15T05:33:06.992Z,716
2017-09-15T05:33:47.571Z,684
2017-09-15T05:34:28.133Z,744
2017-09-15T05:35:08.708Z,720
2017-09-15T05:35:49.236Z,644
2017-09-15T05:36:29.791Z,824
2017-09-15T05:37:10.348Z,1064
2017-09-15T05:37:50.908Z,1108
2017-09-15T05:38:31.474Z,1156
2017-09-15T05:39:12.088Z,1284
2017-09-15T05:39:52.662Z,1180
2017-09-15T05:40:33.222Z,1032
2017-09-15T05:41:13.788Z,936
2017-09-15T05:41:54.349Z,888
2017-09-15T05:42:34.915Z,848
2017-09-15T05:43:15.474Z,1168
2017-09-15T05:43:56.038Z,1344
2017-09-15T05:44:36.594Z,1316
2017-09-15T05:45:17.158Z,1680
2017-09-15T05:45:57.764Z,1632
2017-09-15T05:46:38.322Z,1920
2017-09-15T05:47:18.892Z,2084
2017-09-15T05:47:59.454Z,1916
2017-09-15T05:48:40.013Z,2420
2017-09-15T05:49:20.596Z,2592
2017-09-15T05:50:01.154Z,2692
2017-09-15T05:50:41.725Z,2680
2017-09-15T05:51:22.301Z,2724
2017-09-15T05:52:02.860Z,2512
2017-09-15T05:52:43.427Z,2616
2017-09-15T05:53:24.003Z,2384
2017-09-15T05:54:04.552Z,2148
2017-09-15T05:54:45.134Z,2636
2017-09-15T05:55:25.701Z,3032
2017-09-15T05:56:06.260Z,2832
2017-09-15T05:56:46.847Z,2048
2017-09-15T05:57:27.413Z,1672
2017-09-15T05:58:07.967Z,1856
2017-09-15T05:58:48.533Z,1956
2017-09-15T05:59:29.089Z,2036
2017-09-15T06:00:09.660Z,2536
2017-09-15T06:00:50.221Z,2312
2017-09-15T06:01:30.777Z,3000
2017-09-15T06:02:11.328Z,3152
2017-09-15T06:02:51.892Z,4184
2017-09-15T06:03:32.464Z,3140
2017-09-15T06:04:13.557Z,2900
2017-09-15T06:04:54.136Z,3664
2017-09-15T06:05:34.736Z,4304
2017-09-15T06:06:15.303Z,2668
2017-09-15T06:06:55.860Z,2248
2017-09-15T06:07:36.418Z,1752
2017-09-15T06:08:16.978Z,2588
2017-09-15T06:08:57.563Z,3976
2017-09-15T06:09:38.126Z,3348
2017-09-15T06:10:18.701Z,2520
2017-09-15T06:10:59.270Z,2328
2017-09-15T06:11:39.840Z,1892
2017-09-15T06:12:20.408Z,1520
2017-09-15T06:13:00.972Z,1384
2017-09-15T06:13:41.538Z,1428
2017-09-15T06:14:22.104Z,2888
2017-09-15T06:15:02.664Z,3588
2017-09-15T06:15:43.220Z,2780
2017-09-15T06:16:23.812Z,3536
2017-09-15T06:17:04.373Z,3948
2017-09-15T06:17:44.925Z,4332
2017-09-15T06:18:25.497Z,4896
2017-09-15T06:19:06.153Z,5136
2017-09-15T06:19:46.752Z,4028
2017-09-15T06:20:27.307Z,3500
2017-09-15T06:21:07.876Z,2408
2017-09-15T06:21:48.451Z,1736
2017-09-15T06:22:29.044Z,1704
2017-09-15T06:23:09.630Z,1676
2017-09-15T06:23:50.203Z,1896
2017-09-15T06:24:30.785Z,2496
2017-09-15T06:25:11.353Z,3828
2017-09-15T06:25:51.921Z,5080
2017-09-15T06:26:32.488Z,5116
2017-09-15T06:27:13.063Z,4656
2017-09-15T06:27:53.655Z,3044
2017-09-15T06:28:34.215Z,2508
2017-09-15T06:29:14.777Z,2820
2017-09-15T06:29:55.358Z,3336
2017-09-15T06:30:35.943Z,3280
2017-09-15T06:31:16.499Z,4052
2017-09-15T06:31:57.059Z,5380
2017-09-15T06:32:37.615Z,6624
2017-09-15T06:33:18.180Z,8576
2017-09-15T06:33:58.736Z,8272
2017-09-15T06:34:39.321Z,7220
2017-09-15T06:35:19.941Z,5404
2017-09-15T06:36:00.558Z,4196
2017-09-15T06:36:41.145Z,2384
2017-09-15T06:37:21.694Z,1556
2017-09-15T06:38:02.251Z,1224
2017-09-15T06:38:42.810Z,1104
2017-09-15T06:39:23.388Z,1036
2017-09-15T06:40:03.962Z,1080
2017-09-15T06:40:45.497Z,1228
2017-09-15T06:41:26.091Z,1352
2017-09-15T06:42:06.666Z,2268
2017-09-15T06:42:47.226Z,3368
2017-09-15T06:43:27.785Z,4016
2017-09-15T06:44:08.354Z,4360
2017-09-15T06:44:48.897Z,4728
2017-09-15T06:45:29.463Z,6292
2017-09-15T06:46:10.014Z,7760
2017-09-15T06:46:50.577Z,7688
2017-09-15T06:47:31.145Z,4380
2017-09-15T06:48:11.713Z,2864
2017-09-15T06:48:52.279Z,3676
2017-09-15T06:49:32.838Z,3796
2017-09-15T06:50:13.426Z,3244
2017-09-15T06:50:53.983Z,4288
2017-09-15T06:51:34.562Z,5480
2017-09-15T06:52:15.134Z,7856
2017-09-15T06:52:55.699Z,9968
2017-09-15T06:53:36.257Z,12688
2017-09-15T06:54:16.826Z,9860
2017-09-15T06:54:57.377Z,9648
2017-09-15T06:55:38.045Z,10260
2017-09-15T06:56:18.655Z,4528
2017-09-15T06:56:59.217Z,4552
2017-09-15T06:57:39.796Z,6468
2017-09-15T06:58:20.360Z,11868
2017-09-15T06:59:00.909Z,9896
2017-09-15T06:59:41.505Z,15312
2017-09-15T07:00:22.084Z,21920
2017-09-15T07:01:02.662Z,9044
2017-09-15T07:01:43.236Z,23040
2017-09-15T07:02:23.828Z,30336
2017-09-15T07:03:04.422Z,20992
2017-09-15T07:03:44.995Z,18976
2017-09-15T07:04:25.585Z,31136
2017-09-15T07:05:06.182Z,54720
2017-09-15T07:05:46.744Z,26336
2017-09-15T07:06:27.314Z,45600
2017-09-15T07:07:07.883Z,64352
2017-09-15T07:07:48.434Z,63584
2017-09-15T07:08:29.025Z,9164
2017-09-15T07:09:09.590Z,8276
2017-09-15T07:09:50.164Z,3912
2017-09-15T07:10:30.796Z,3768
2017-09-15T07:11:11.369Z,50464
2017-09-15T07:11:52.053Z,70464
2017-09-15T07:12:32.602Z,30784
2017-09-15T07:13:13.182Z,9160
2017-09-15T07:13:53.808Z,39456
2017-09-15T07:14:34.373Z,83360
2017-09-15T07:15:14.935Z,7292
2017-09-15T07:15:55.508Z,15632
2017-09-15T07:16:36.194Z,80448
2017-09-15T07:17:16.738Z,21280
2017-09-15T07:17:57.317Z,67648
2017-09-15T07:18:37.865Z,10020
2017-09-15T07:19:18.459Z,11592
2017-09-15T07:19:59.025Z,64960
2017-09-15T07:20:39.583Z,9056
2017-09-15T07:21:20.202Z,10492
2017-09-15T07:22:00.771Z,60640
2017-09-15T07:22:41.330Z,80192
2017-09-15T07:23:21.936Z,83776
2017-09-15T07:24:02.511Z,46144
2017-09-15T07:24:43.071Z,85856
2017-09-15T07:25:23.639Z,83584
2017-09-15T07:26:04.218Z,84896
2017-09-15T07:26:44.794Z,54944
2017-09-15T07:27:25.407Z,57120
2017-09-15T07:28:07.440Z,87680
2017-09-15T07:28:48.205Z,8852
2017-09-15T07:29:29.192Z,87840
2017-09-15T07:30:10.104Z,88864
2017-09-15T07:30:50.706Z,91072
2017-09-15T07:31:31.284Z,14740
2017-09-15T07:32:12.240Z,14104
2017-09-15T07:32:52.818Z,10800
2017-09-15T07:33:33.414Z,90912
2017-09-15T07:34:14.032Z,90240
2017-09-15T07:34:54.638Z,91392
2017-09-15T07:35:35.206Z,17344
2017-09-15T07:36:15.790Z,80640
2017-09-15T07:36:56.366Z,8812
2017-09-15T07:37:36.989Z,8740
2017-09-15T07:38:17.830Z,6948
2017-09-15T07:38:58.424Z,88480
2017-09-15T07:39:39.028Z,84736
2017-09-15T07:40:19.614Z,85664
2017-09-15T07:41:00.294Z,82080
2017-09-15T07:41:40.863Z,62112
2017-09-15T07:42:21.423Z,88672
2017-09-15T07:43:02.242Z,89568
2017-09-15T07:43:42.815Z,91520
2017-09-15T07:44:23.376Z,34080
2017-09-15T07:45:03.988Z,87040
2017-09-15T07:45:44.557Z,25600
2017-09-15T07:46:25.135Z,66752
2017-09-15T07:47:05.725Z,87072
2017-09-15T07:47:46.343Z,88992
2017-09-15T07:48:26.919Z,46656
2017-09-15T07:49:07.515Z,10196
2017-09-15T07:49:48.088Z,5808
2017-09-15T07:50:28.708Z,4620
2017-09-15T07:51:09.283Z,3672
2017-09-15T07:51:49.853Z,86848
2017-09-15T07:52:30.460Z,18048
2017-09-15T07:53:11.031Z,10152
2017-09-15T07:53:51.598Z,56448
2017-09-15T07:54:32.182Z,89152
2017-09-15T07:55:12.759Z,17376
2017-09-15T07:55:53.375Z,54944
2017-09-15T07:56:33.964Z,81984
2017-09-15T07:57:14.551Z,48384
2017-09-15T07:57:55.115Z,93568
2017-09-15T07:58:35.692Z,10904
2017-09-15T07:59:16.280Z,6524
2017-09-15T07:59:56.852Z,52800
2017-09-15T08:00:37.437Z,86304
2017-09-15T08:01:18.015Z,8632
2017-09-15T08:01:58.591Z,6376
2017-09-15T08:02:39.176Z,13192
2017-09-15T08:03:19.741Z,79712
2017-09-15T08:04:00.315Z,80256
2017-09-15T08:04:40.880Z,82336
2017-09-15T08:05:21.458Z,41056
2017-09-15T08:06:02.053Z,13204
2017-09-15T08:06:42.622Z,9724
2017-09-15T08:07:23.209Z,23680
2017-09-15T08:08:03.798Z,5604
2017-09-15T08:08:44.488Z,4488
2017-09-15T08:09:25.073Z,70496
2017-09-15T08:10:05.646Z,83040
2017-09-15T08:10:46.242Z,71776
2017-09-15T08:11:26.837Z,83712
2017-09-15T08:12:07.447Z,20288
2017-09-15T08:12:48.014Z,81856
2017-09-15T08:13:28.589Z,79360
2017-09-15T08:14:09.165Z,77984
2017-09-15T08:14:49.737Z,59840
2017-09-15T08:15:30.310Z,19968
2017-09-15T08:16:10.875Z,22464
2017-09-15T08:16:51.434Z,27808
2017-09-15T08:17:32.055Z,6680
2017-09-15T08:18:12.589Z,18720
2017-09-15T08:18:53.178Z,15500
2017-09-15T08:19:33.748Z,24512
2017-09-15T08:20:14.325Z,21376
2017-09-15T08:20:54.901Z,8280
2017-09-15T08:21:35.471Z,21696
2017-09-15T08:22:16.050Z,20704
2017-09-15T08:22:56.643Z,8772
2017-09-15T08:23:37.230Z,18176
2017-09-15T08:24:17.808Z,17824
2017-09-15T08:24:58.380Z,18496
2017-09-15T08:25:38.951Z,15872
2017-09-15T08:26:19.533Z,17824
2017-09-15T08:27:00.106Z,16800
2017-09-15T08:27:40.684Z,15840
2017-09-15T08:28:21.248Z,7440
2017-09-15T08:29:01.818Z,15104
2017-09-15T08:29:42.381Z,7332
2017-09-15T08:30:22.949Z,5856
2017-09-15T08:31:03.524Z,6648
2017-09-15T08:31:44.094Z,10060
2017-09-15T08:32:24.652Z,14060
2017-09-15T08:33:05.226Z,12808
2017-09-15T08:33:45.816Z,12508
2017-09-15T08:34:26.394Z,6900
2017-09-15T08:35:06.986Z,11340
2017-09-15T08:35:47.562Z,7004
2017-09-15T08:36:28.134Z,9564
2017-09-15T08:37:08.714Z,7272
2017-09-15T08:37:49.277Z,7236
2017-09-15T08:38:29.943Z,6368
2017-09-15T08:39:10.562Z,5148
2017-09-15T08:39:51.201Z,3688
2017-09-15T08:40:31.753Z,3460
2017-09-15T08:41:12.325Z,5908
2017-09-15T08:41:52.908Z,5440
2017-09-15T08:42:33.487Z,4876
2017-09-15T08:43:14.061Z,8272
2017-09-15T08:43:54.629Z,5752
2017-09-15T08:44:35.230Z,7248
2017-09-15T08:45:15.806Z,8884
2017-09-15T08:45:56.422Z,10864
2017-09-15T08:46:36.999Z,7224
2017-09-15T08:47:17.555Z,8924
2017-09-15T08:47:58.123Z,8396
2017-09-15T08:48:38.690Z,5412
2017-09-15T08:49:19.253Z,4496
2017-09-15T08:49:59.818Z,3960
2017-09-15T08:50:40.373Z,6616
2017-09-15T08:51:20.945Z,7020
2017-09-15T08:52:01.516Z,4760
2017-09-15T08:52:42.157Z,5112
2017-09-15T08:53:22.738Z,4852
2017-09-15T08:54:03.298Z,4480
2017-09-15T08:54:43.872Z,4504
2017-09-15T08:55:24.450Z,3948
2017-09-15T08:56:05.085Z,3888
2017-09-15T08:56:45.653Z,4556
2017-09-15T08:57:26.235Z,4896
2017-09-15T08:58:06.837Z,5776
2017-09-15T08:58:47.423Z,3688
2017-09-15T08:59:28.018Z,3884
2017-09-15T09:00:08.587Z,4104
2017-09-15T09:00:49.173Z,5944
2017-09-15T09:01:29.755Z,5396
2017-09-15T09:02:10.347Z,6572
2017-09-15T09:02:50.916Z,6068
2017-09-15T09:03:31.746Z,5796
2017-09-15T09:04:12.307Z,4880
2017-09-15T09:04:52.901Z,3772
2017-09-15T09:05:33.450Z,3060
2017-09-15T09:06:14.032Z,3160
2017-09-15T09:06:54.590Z,4724
2017-09-15T09:07:35.180Z,3656
2017-09-15T09:08:15.793Z,6932
2017-09-15T09:08:56.410Z,7596
2017-09-15T09:09:36.984Z,5476
2017-09-15T09:10:17.565Z,5388
2017-09-15T09:10:58.123Z,5772
2017-09-15T09:11:38.680Z,6964
2017-09-15T09:12:19.270Z,6784
2017-09-15T09:12:59.846Z,7012
2017-09-15T09:13:40.423Z,6984
2017-09-15T09:14:21.000Z,6492
2017-09-15T09:15:01.593Z,6064
2017-09-15T09:15:42.194Z,5592
2017-09-15T09:16:22.750Z,5088
2017-09-15T09:17:03.331Z,4944
2017-09-15T09:17:43.887Z,4716
2017-09-15T09:18:24.465Z,4756
2017-09-15T09:19:05.046Z,4688
2017-09-15T09:19:45.629Z,4868
2017-09-15T09:20:26.193Z,5236
2017-09-15T09:21:06.778Z,5292
2017-09-15T09:21:47.315Z,5080
2017-09-15T09:22:27.879Z,4888
2017-09-15T09:23:08.431Z,4720
2017-09-15T09:23:49.079Z,4652
2017-09-15T09:24:29.630Z,4520
2017-09-15T09:25:10.227Z,4920
2017-09-15T09:25:50.886Z,4352
2017-09-15T09:26:31.478Z,5192
2017-09-15T09:27:12.048Z,5728
2017-09-15T09:27:52.636Z,6540